createdAt,value
2018-02-04T00:00:52.062Z,11.90
2018-02-04T00:03:20.307Z,12.93
2018-02-04T00:05:47.786Z,12.10
2018-02-04T00:08:15.259Z,13.57
2018-02-04T00:10:43.490Z,13.57
2018-02-04T00:13:10.982Z,12.27
2018-02-04T00:15:38.454Z,11.73
2018-02-04T00:18:06.694Z,12.70
2018-02-04T00:20:34.963Z,12.10
2018-02-04T00:23:02.447Z,11.37
2018-02-04T00:25:30.757Z,12.40
2018-02-04T00:27:58.483Z,13.07
2018-02-04T00:30:25.937Z,11.57
2018-02-04T00:32:53.410Z,11.17
2018-02-04T00:35:21.635Z,11.80
2018-02-04T00:37:49.101Z,11.43
2018-02-04T00:40:16.569Z,10.83
2018-02-04T00:42:44.049Z,11.10
2018-02-04T00:45:11.507Z,10.00
2018-02-04T00:47:39.729Z,11.80
2018-02-04T00:50:07.194Z,10.87
2018-02-04T00:52:34.669Z,12.30
2018-02-04T00:55:02.131Z,11.90
2018-02-04T00:57:30.351Z,10.83
2018-02-04T00:59:58.597Z,11.30
2018-02-04T01:02:26.061Z,10.37
2018-02-04T01:04:53.523Z,10.83
2018-02-04T01:07:21.766Z,10.67
2018-02-04T01:09:49.242Z,10.13
2018-02-04T01:12:16.704Z,9.70
2018-02-04T01:14:44.165Z,9.50
2018-02-04T01:17:11.616Z,8.90
2018-02-04T01:19:39.105Z,10.53
2018-02-04T01:22:06.561Z,9.70
2018-02-04T01:24:34.017Z,9.17
2018-02-04T01:27:01.482Z,9.73
2018-02-04T01:29:29.186Z,9.43
2018-02-04T01:31:56.654Z,9.57
2018-02-04T01:34:24.131Z,10.03
2018-02-04T01:36:52.379Z,9.87
2018-02-04T01:39:19.845Z,9.00
2018-02-04T01:41:47.299Z,8.60
2018-02-04T01:44:14.766Z,8.97
2018-02-04T01:46:42.246Z,9.33
2018-02-04T01:49:10.484Z,9.60
2018-02-04T01:51:37.941Z,9.27
2018-02-04T01:54:05.402Z,9.40
2018-02-04T01:56:32.853Z,9.33
2018-02-04T01:59:00.536Z,8.63
2018-02-04T02:01:27.998Z,8.97
2018-02-04T02:03:56.231Z,9.13
2018-02-04T02:06:23.673Z,9.07
2018-02-04T02:08:51.157Z,8.70
2018-02-04T02:11:18.613Z,8.70
2018-02-04T02:13:46.082Z,8.13
2018-02-04T02:16:13.538Z,8.53
2018-02-04T02:18:41.006Z,9.10
2018-02-04T02:21:08.457Z,8.10
2018-02-04T02:23:35.921Z,8.20
2018-02-04T02:26:03.374Z,8.17
2018-02-04T02:28:30.837Z,8.30
2018-02-04T02:30:58.302Z,8.43
2018-02-04T02:33:25.753Z,8.50
2018-02-04T02:35:53.212Z,7.83
2018-02-04T02:38:20.660Z,7.93
2018-02-04T02:40:48.123Z,7.87
2018-02-04T02:43:15.581Z,8.27
2018-02-04T02:45:43.087Z,8.70
2018-02-04T02:48:10.555Z,8.40
2018-02-04T02:50:38.006Z,8.87
2018-02-04T02:53:05.474Z,7.37
2018-02-04T02:55:32.937Z,8.53
2018-02-04T02:58:00.392Z,8.17
2018-02-04T03:00:27.853Z,8.20
2018-02-04T03:02:55.317Z,9.13
2018-02-04T03:05:22.783Z,8.50
2018-02-04T03:07:50.250Z,7.57
2018-02-04T03:10:17.702Z,8.20
2018-02-04T03:12:45.170Z,7.67
2018-02-04T03:15:12.623Z,8.00
2018-02-04T03:17:40.084Z,7.87
2018-02-04T03:20:07.542Z,8.97
2018-02-04T03:22:35.002Z,8.00
2018-02-04T03:25:03.222Z,8.27
2018-02-04T03:27:30.683Z,8.30
2018-02-04T03:29:58.147Z,8.17
2018-02-04T03:32:26.378Z,9.47
2018-02-04T03:34:54.604Z,8.53
2018-02-04T03:37:22.058Z,8.60
2018-02-04T03:39:49.517Z,8.57
2018-02-04T03:42:17.002Z,8.70
2018-02-04T03:44:45.257Z,9.07
2018-02-04T03:47:12.746Z,8.33
2018-02-04T03:49:40.211Z,8.90
2018-02-04T03:52:07.706Z,8.57
2018-02-04T03:54:35.176Z,9.20
2018-02-04T03:57:02.648Z,8.97
2018-02-04T03:59:30.120Z,8.63
2018-02-04T04:01:57.599Z,9.03
2018-02-04T04:04:26.693Z,9.20
2018-02-04T04:06:54.917Z,9.87
2018-02-04T04:09:22.378Z,9.67
2018-02-04T04:11:49.857Z,8.70
2018-02-04T04:14:17.321Z,9.87
2018-02-04T04:16:44.827Z,9.07
2018-02-04T04:19:12.883Z,9.40
2018-02-04T04:21:40.364Z,9.83
2018-02-04T04:24:08.917Z,9.27
2018-02-04T04:26:37.168Z,9.57
2018-02-04T04:29:04.651Z,9.43
2018-02-04T04:31:32.894Z,9.30
2018-02-04T04:34:01.140Z,9.20
2018-02-04T04:36:28.615Z,9.50
2018-02-04T04:38:56.079Z,10.03
2018-02-04T04:41:23.559Z,9.97
2018-02-04T04:43:51.790Z,9.87
2018-02-04T04:46:19.265Z,11.07
2018-02-04T04:48:46.732Z,9.80
2018-02-04T04:51:14.215Z,9.57
2018-02-04T04:53:42.676Z,9.37
2018-02-04T04:56:10.137Z,9.93
2018-02-04T04:58:38.539Z,9.50
2018-02-04T05:01:06.762Z,9.00
2018-02-04T05:03:34.240Z,9.60
2018-02-04T05:06:02.489Z,8.97
2018-02-04T05:08:29.979Z,8.60
2018-02-04T05:10:58.232Z,8.70
2018-02-04T05:13:25.712Z,9.00
2018-02-04T05:15:53.170Z,9.60
2018-02-04T05:18:20.638Z,9.10
2018-02-04T05:20:48.098Z,8.67
2018-02-04T05:23:16.342Z,8.40
2018-02-04T05:25:43.824Z,8.67
2018-02-04T05:28:11.282Z,8.63
2018-02-04T05:30:38.768Z,8.93
2018-02-04T05:33:06.238Z,9.07
2018-02-04T05:35:34.230Z,9.20
2018-02-04T05:38:01.700Z,9.50
2018-02-04T05:40:29.241Z,9.33
2018-02-04T05:42:56.690Z,10.07
2018-02-04T05:45:24.188Z,10.23
2018-02-04T05:47:51.664Z,10.23
2018-02-04T05:50:19.920Z,10.27
2018-02-04T05:52:47.397Z,10.37
2018-02-04T05:55:15.627Z,10.80
2018-02-04T05:57:43.099Z,11.33
2018-02-04T06:00:10.561Z,11.77
2018-02-04T06:02:38.833Z,12.13
2018-02-04T06:05:06.326Z,12.47
2018-02-04T06:07:34.554Z,13.00
2018-02-04T06:10:02.032Z,12.20
2018-02-04T06:12:29.502Z,12.47
2018-02-04T06:14:57.767Z,12.73
2018-02-04T06:17:25.255Z,13.23
2018-02-04T06:19:52.738Z,12.87
2018-02-04T06:22:20.214Z,12.70
2018-02-04T06:24:47.956Z,13.70
2018-02-04T06:27:15.427Z,14.57
2018-02-04T06:29:42.912Z,15.13
2018-02-04T06:32:11.170Z,14.90
2018-02-04T06:34:39.381Z,15.00
2018-02-04T06:37:07.637Z,14.57
2018-02-04T06:39:35.123Z,17.00
2018-02-04T06:42:03.377Z,15.70
2018-02-04T06:44:30.854Z,16.20
2018-02-04T06:46:59.115Z,15.93
2018-02-04T06:49:27.371Z,16.23
2018-02-04T06:51:54.849Z,16.43
2018-02-04T06:54:22.340Z,15.50
2018-02-04T06:56:49.832Z,16.23
2018-02-04T06:59:17.314Z,16.80
2018-02-04T07:01:44.796Z,17.00
2018-02-04T07:04:13.205Z,17.60
2018-02-04T07:06:40.707Z,17.00
2018-02-04T07:09:08.184Z,17.33
2018-02-04T07:11:36.441Z,16.77
2018-02-04T07:14:03.925Z,16.93
2018-02-04T07:16:32.168Z,15.73
2018-02-04T07:18:59.651Z,16.23
2018-02-04T07:21:27.911Z,17.10
2018-02-04T07:23:55.384Z,16.67
2018-02-04T07:26:23.640Z,16.17
2018-02-04T07:28:51.126Z,16.13
2018-02-04T07:31:19.639Z,16.03
2018-02-04T07:33:47.106Z,16.60
2018-02-04T07:36:14.570Z,16.77
2018-02-04T07:38:42.045Z,16.93
2018-02-04T07:41:09.518Z,16.60
2018-02-04T07:43:36.994Z,17.17
2018-02-04T07:46:05.360Z,18.03
2018-02-04T07:48:33.602Z,17.77
2018-02-04T07:51:01.054Z,18.37
2018-02-04T07:53:28.521Z,18.70
2018-02-04T07:55:55.983Z,18.30
2018-02-04T07:58:23.457Z,18.60
2018-02-04T08:00:51.706Z,18.17
2018-02-04T08:03:19.161Z,17.53
2018-02-04T08:05:46.630Z,17.17
2018-02-04T08:08:14.090Z,16.20
2018-02-04T08:10:41.574Z,17.17
2018-02-04T08:13:09.824Z,15.27
2018-02-04T08:15:37.294Z,17.43
2018-02-04T08:18:05.553Z,16.83
2018-02-04T08:20:33.094Z,16.87
2018-02-04T08:23:00.575Z,16.97
2018-02-04T08:25:28.056Z,17.63
2018-02-04T08:27:55.557Z,17.20
2018-02-04T08:30:23.026Z,17.53
2018-02-04T08:32:50.601Z,16.63
2018-02-04T08:35:18.100Z,17.63
2018-02-04T08:37:45.585Z,18.73
2018-02-04T08:40:13.143Z,18.67
2018-02-04T08:42:40.601Z,17.17
2018-02-04T08:45:08.065Z,18.80
2018-02-04T08:47:35.821Z,17.17
2018-02-04T08:50:03.281Z,18.87
2018-02-04T08:52:30.742Z,18.43
2018-02-04T08:54:58.230Z,20.87
2018-02-04T08:57:25.697Z,17.93
2018-02-04T08:59:53.162Z,18.07
2018-02-04T09:02:21.385Z,17.37
2018-02-04T09:04:48.858Z,18.00
2018-02-04T09:07:16.323Z,17.37
2018-02-04T09:09:43.790Z,18.53
2018-02-04T09:12:11.261Z,19.87
2018-02-04T09:14:38.715Z,17.10
2018-02-04T09:17:06.219Z,16.90
2018-02-04T09:19:33.677Z,16.13
2018-02-04T09:22:01.149Z,16.07
2018-02-04T09:24:28.629Z,16.23
2018-02-04T09:26:56.088Z,17.10
2018-02-04T09:29:23.568Z,16.97
2018-02-04T09:31:51.063Z,14.83
2018-02-04T09:34:18.534Z,15.70
2018-02-04T09:36:46.009Z,15.33
2018-02-04T09:39:13.475Z,14.73
2018-02-04T09:41:40.953Z,14.97
2018-02-04T09:44:08.409Z,14.73
2018-02-04T09:46:35.882Z,17.07
2018-02-04T09:49:04.106Z,16.33
2018-02-04T09:51:31.570Z,15.57
2018-02-04T09:53:59.042Z,13.07
2018-02-04T09:56:26.518Z,26.80
2018-02-04T09:58:53.974Z,14.60
2018-02-04T10:01:21.441Z,16.73
2018-02-04T10:03:49.671Z,16.23
2018-02-04T10:06:17.129Z,16.90
2018-02-04T10:08:44.598Z,16.90
2018-02-04T10:11:12.086Z,18.07
2018-02-04T10:13:40.318Z,19.40
2018-02-04T10:16:08.018Z,18.60
2018-02-04T10:18:35.525Z,18.83
2018-02-04T10:21:03.002Z,21.60
2018-02-04T10:23:30.465Z,18.70
2018-02-04T10:25:57.939Z,23.07
2018-02-04T10:28:25.416Z,18.23
2018-02-04T10:30:53.664Z,18.70
2018-02-04T10:33:21.135Z,17.87
2018-02-04T10:35:48.621Z,19.67
2018-02-04T10:38:16.104Z,14.00
2018-02-04T10:40:43.569Z,14.67
2018-02-04T10:43:11.066Z,12.60
2018-02-04T10:45:38.549Z,12.83
2018-02-04T10:48:06.027Z,12.37
2018-02-04T10:50:33.500Z,13.47
2018-02-04T10:53:00.982Z,12.33
2018-02-04T10:55:28.440Z,12.80
2018-02-04T10:57:55.930Z,13.23
2018-02-04T11:00:23.409Z,13.70
2018-02-04T11:02:50.879Z,13.27
2018-02-04T11:05:18.366Z,12.33
2018-02-04T11:07:45.858Z,13.00
2018-02-04T11:10:14.122Z,14.40
2018-02-04T11:12:42.370Z,13.97
2018-02-04T11:15:09.839Z,15.00
2018-02-04T11:17:37.306Z,11.47
2018-02-04T11:20:05.554Z,11.10
2018-02-04T11:22:33.045Z,10.57
2018-02-04T11:25:01.273Z,11.80
2018-02-04T11:27:29.049Z,12.00
2018-02-04T11:29:56.510Z,10.00
2018-02-04T11:32:24.019Z,8.73
2018-02-04T11:34:51.485Z,6.37
2018-02-04T11:37:18.945Z,7.53
2018-02-04T11:39:46.411Z,7.00
2018-02-04T11:42:13.861Z,7.70
2018-02-04T11:44:41.386Z,8.30
2018-02-04T11:47:08.803Z,7.57
2018-02-04T11:49:36.268Z,8.20
2018-02-04T11:52:03.738Z,8.20
2018-02-04T11:54:31.185Z,8.40
2018-02-04T11:57:00.281Z,8.30
2018-02-04T11:59:27.795Z,8.20
2018-02-04T12:01:55.224Z,7.73
2018-02-04T12:04:23.646Z,9.07
2018-02-04T12:06:51.104Z,9.77
2018-02-04T12:09:18.618Z,9.67
2018-02-04T12:11:46.078Z,9.87
2018-02-04T12:14:14.310Z,10.00
2018-02-04T12:16:41.777Z,9.30
2018-02-04T12:19:09.246Z,8.70
2018-02-04T12:21:36.725Z,8.47
2018-02-04T12:24:05.001Z,6.00
2018-02-04T12:26:32.452Z,6.80
2018-02-04T12:29:00.696Z,6.30
2018-02-04T12:31:28.166Z,5.80
2018-02-04T12:33:55.632Z,6.00
2018-02-04T12:36:23.883Z,5.50
2018-02-04T12:38:51.344Z,6.50
2018-02-04T12:41:18.816Z,6.47
2018-02-04T12:43:46.282Z,7.30
2018-02-04T12:46:13.743Z,7.20
2018-02-04T12:48:41.206Z,7.13
2018-02-04T12:51:09.436Z,4.77
2018-02-04T12:53:36.910Z,3.90
2018-02-04T12:56:04.394Z,4.30
2018-02-04T12:58:31.876Z,4.20
2018-02-04T13:00:59.355Z,4.80
2018-02-04T13:03:26.820Z,5.47
2018-02-04T13:05:54.307Z,3.70
2018-02-04T13:08:21.781Z,3.50
2018-02-04T13:10:50.026Z,3.60
2018-02-04T13:13:17.487Z,3.80
2018-02-04T13:15:44.941Z,3.07
2018-02-04T13:18:12.406Z,3.57
2018-02-04T13:20:40.330Z,3.33
2018-02-04T13:23:07.815Z,4.10
2018-02-04T13:25:35.300Z,4.07
2018-02-04T13:28:02.779Z,4.53
2018-02-04T13:30:31.002Z,3.90
2018-02-04T13:32:58.470Z,4.87
2018-02-04T13:35:25.932Z,3.90
2018-02-04T13:37:53.393Z,4.30
2018-02-04T13:40:20.874Z,12.57
2018-02-04T13:42:49.102Z,7.90
2018-02-04T13:45:16.571Z,4.63
2018-02-04T13:47:44.031Z,6.80
2018-02-04T13:50:11.702Z,5.43
2018-02-04T13:52:39.182Z,5.20
2018-02-04T13:55:07.407Z,5.80
2018-02-04T13:57:34.870Z,5.17
2018-02-04T14:00:02.330Z,5.83
2018-02-04T14:02:29.782Z,6.90
2018-02-04T14:04:57.294Z,5.67
2018-02-04T14:07:25.510Z,5.70
2018-02-04T14:09:52.973Z,6.17
2018-02-04T14:12:20.422Z,6.63
2018-02-04T14:14:47.893Z,6.37
2018-02-04T14:17:15.410Z,5.30
2018-02-04T14:19:42.907Z,6.20
2018-02-04T14:22:10.402Z,6.20
2018-02-04T14:24:38.647Z,5.83
2018-02-04T14:27:06.899Z,5.70
2018-02-04T14:29:34.372Z,5.67
2018-02-04T14:32:01.861Z,7.13
2018-02-04T14:34:29.331Z,6.87
2018-02-04T14:36:57.572Z,7.47
2018-02-04T14:39:25.053Z,6.53
2018-02-04T14:41:52.518Z,6.17
2018-02-04T14:44:19.965Z,6.63
2018-02-04T14:46:47.427Z,6.37
2018-02-04T14:49:14.881Z,6.37
2018-02-04T14:51:42.367Z,6.70
2018-02-04T14:54:09.851Z,6.20
2018-02-04T14:56:37.318Z,6.63
2018-02-04T14:59:04.785Z,6.70
2018-02-04T15:01:32.254Z,6.20
2018-02-04T15:03:59.718Z,6.43
2018-02-04T15:06:27.200Z,7.23
2018-02-04T15:08:55.429Z,6.53
2018-02-04T15:11:22.927Z,6.07
2018-02-04T15:13:51.182Z,6.77
2018-02-04T15:16:18.643Z,6.23
2018-02-04T15:18:46.115Z,6.13
2018-02-04T15:21:13.561Z,5.93
2018-02-04T15:23:41.027Z,6.23
2018-02-04T15:26:08.489Z,6.43
2018-02-04T15:28:35.951Z,6.40
2018-02-04T15:31:04.188Z,6.20
2018-02-04T15:33:32.645Z,6.50
2018-02-04T15:36:02.058Z,7.17
2018-02-04T15:38:29.532Z,6.73
2018-02-04T15:40:57.008Z,6.43
2018-02-04T15:43:25.308Z,6.33
2018-02-04T15:45:52.760Z,7.30
2018-02-04T15:48:20.996Z,7.60
2018-02-04T15:50:48.466Z,6.70
2018-02-04T15:53:15.934Z,6.47
2018-02-04T15:55:43.410Z,7.37
2018-02-04T15:58:11.758Z,8.30
2018-02-04T16:00:39.259Z,8.13
2018-02-04T16:03:06.739Z,9.03
2018-02-04T16:05:34.227Z,9.83
2018-02-04T16:08:02.503Z,11.23
2018-02-04T16:10:29.974Z,12.07
2018-02-04T16:12:57.439Z,10.47
2018-02-04T16:15:25.682Z,11.00
2018-02-04T16:17:53.159Z,13.30
2018-02-04T16:20:20.654Z,11.50
2018-02-04T16:22:48.130Z,11.43
2018-02-04T16:25:15.615Z,10.97
2018-02-04T16:27:43.101Z,11.47
2018-02-04T16:30:11.352Z,10.63
2018-02-04T16:32:38.829Z,10.90
2018-02-04T16:35:06.305Z,10.53
2018-02-04T16:37:34.543Z,10.30
2018-02-04T16:40:02.018Z,10.33
2018-02-04T16:42:30.265Z,11.07
2018-02-04T16:44:58.553Z,11.10
2018-02-04T16:47:26.026Z,10.67
2018-02-04T16:49:53.507Z,10.10
2018-02-04T16:52:21.751Z,10.23
2018-02-04T16:54:49.232Z,9.50
2018-02-04T16:57:17.458Z,10.43
2018-02-04T16:59:44.963Z,12.13
2018-02-04T17:02:13.214Z,12.80
2018-02-04T17:04:40.699Z,11.90
2018-02-04T17:07:08.942Z,12.10
2018-02-04T17:09:36.474Z,12.27
2018-02-04T17:12:03.954Z,12.30
2018-02-04T17:14:31.474Z,12.37
2018-02-04T17:16:58.984Z,13.03
2018-02-04T17:19:26.466Z,13.77
2018-02-04T17:21:54.742Z,14.77
2018-02-04T17:24:22.977Z,13.93
2018-02-04T17:26:50.451Z,13.23
2018-02-04T17:29:17.955Z,14.27
2018-02-04T17:31:45.430Z,15.27
2018-02-04T17:34:12.947Z,14.97
2018-02-04T17:36:40.430Z,15.23
2018-02-04T17:39:07.947Z,20.97
2018-02-04T17:41:36.191Z,25.23
2018-02-04T17:44:03.674Z,30.33
2018-02-04T17:46:31.154Z,25.40
2018-02-04T17:48:59.391Z,17.40
2018-02-04T17:51:26.885Z,15.43
2018-02-04T17:53:55.154Z,15.83
2018-02-04T17:56:24.647Z,16.87
2018-02-04T17:58:52.135Z,15.90
2018-02-04T18:01:20.383Z,17.03
2018-02-04T18:03:47.875Z,16.23
2018-02-04T18:06:16.341Z,16.10
2018-02-04T18:08:44.582Z,15.90
2018-02-04T18:11:16.197Z,16.47
2018-02-04T18:13:43.692Z,16.07
2018-02-04T18:16:11.188Z,16.03
2018-02-04T18:18:41.152Z,14.37
2018-02-04T18:21:08.862Z,16.20
2018-02-04T18:23:37.152Z,15.70
2018-02-04T18:26:04.684Z,15.30
2018-02-04T18:28:32.162Z,15.67
2018-02-04T18:31:01.135Z,17.13
2018-02-04T18:33:30.888Z,16.57
2018-02-04T18:36:00.083Z,17.47
2018-02-04T18:38:29.808Z,19.27
2018-02-04T18:40:57.290Z,17.37
2018-02-04T18:43:24.764Z,17.43
2018-02-04T18:45:53.170Z,18.43
2018-02-04T18:48:20.653Z,17.30
2018-02-04T18:50:48.184Z,18.33
2018-02-04T18:53:16.417Z,16.93
2018-02-04T18:55:43.898Z,15.53
2018-02-04T18:58:11.354Z,16.60
2018-02-04T19:00:38.817Z,15.87
2018-02-04T19:03:07.242Z,14.77
2018-02-04T19:05:35.725Z,16.13
2018-02-04T19:08:03.195Z,14.73
2018-02-04T19:10:32.686Z,15.07
2018-02-04T19:13:00.143Z,15.63
2018-02-04T19:15:27.622Z,16.73
2018-02-04T19:17:55.099Z,17.00
2018-02-04T19:20:23.337Z,16.43
2018-02-04T19:22:50.805Z,16.67
2018-02-04T19:25:18.294Z,16.37
2018-02-04T19:27:45.746Z,16.23
2018-02-04T19:30:13.218Z,16.40
2018-02-04T19:35:15.458Z,17.83
2018-02-04T19:37:42.939Z,18.10
2018-02-04T19:40:10.401Z,18.20
2018-02-04T19:42:37.877Z,18.07
2018-02-04T19:45:06.101Z,18.23
2018-02-04T19:47:33.578Z,17.50
2018-02-04T19:50:01.057Z,17.87
2018-02-04T19:52:28.512Z,18.77
2018-02-04T19:54:55.978Z,18.73
2018-02-04T19:57:24.222Z,18.57
2018-02-04T19:59:51.675Z,18.93
2018-02-04T20:02:19.139Z,18.40
2018-02-04T20:04:46.640Z,18.63
2018-02-04T20:07:14.153Z,18.03
2018-02-04T20:09:41.653Z,18.20
2018-02-04T20:12:09.201Z,19.97
2018-02-04T20:14:37.442Z,19.60
2018-02-04T20:17:04.903Z,20.00
2018-02-04T20:19:32.365Z,20.97
2018-02-04T20:21:59.830Z,20.20
2018-02-04T20:24:27.299Z,20.93
2018-02-04T20:26:54.782Z,20.00
2018-02-04T20:29:22.247Z,22.57
2018-02-04T20:31:49.726Z,26.37
2018-02-04T20:34:29.081Z,26.97
2018-02-04T20:36:56.546Z,25.20
2018-02-04T20:39:24.024Z,26.17
2018-02-04T20:41:51.521Z,24.50
2018-02-04T20:44:18.963Z,24.47
2018-02-04T20:46:46.442Z,25.07
2018-02-04T20:49:13.906Z,22.87
2018-02-04T20:51:41.377Z,22.47
2018-02-04T20:54:08.846Z,22.17
2018-02-04T20:56:36.310Z,23.63
2018-02-04T20:59:03.785Z,23.50
2018-02-04T21:01:32.024Z,23.13
2018-02-04T21:03:59.502Z,21.30
2018-02-04T21:06:26.990Z,23.03
2018-02-04T21:08:55.229Z,23.17
2018-02-04T21:11:22.695Z,23.60
2018-02-04T21:13:50.175Z,21.47
2018-02-04T21:16:18.410Z,21.87
2018-02-04T21:18:46.962Z,21.87
2018-02-04T21:21:14.439Z,22.30
2018-02-04T21:23:41.891Z,22.40
2018-02-04T21:26:09.388Z,24.73
2018-02-04T21:28:36.901Z,23.93
2018-02-04T21:31:05.130Z,22.83
2018-02-04T21:33:33.363Z,22.50
2018-02-04T21:36:00.844Z,20.00
2018-02-04T21:38:28.304Z,21.93
2018-02-04T21:40:56.565Z,22.27
2018-02-04T21:43:24.026Z,19.97
2018-02-04T21:45:51.505Z,20.03
2018-02-04T21:48:19.731Z,19.37
2018-02-04T21:50:47.214Z,19.03
2018-02-04T21:53:14.687Z,18.77
2018-02-04T21:55:42.167Z,18.97
2018-02-04T21:58:10.403Z,19.17
2018-02-04T22:00:37.865Z,18.43
2018-02-04T22:03:05.345Z,18.50
2018-02-04T22:05:33.583Z,18.83
2018-02-04T22:08:01.041Z,20.30
2018-02-04T22:10:28.741Z,20.53
2018-02-04T22:12:56.974Z,19.17
2018-02-04T22:15:24.453Z,19.33
2018-02-04T22:17:51.936Z,19.73
2018-02-04T22:20:19.375Z,18.50
2018-02-04T22:22:46.850Z,18.00
2018-02-04T22:25:15.078Z,18.70
2018-02-04T22:27:42.551Z,19.03
2018-02-04T22:30:10.025Z,18.53
2018-02-04T22:32:37.486Z,19.93
2018-02-04T22:35:04.958Z,18.70
2018-02-04T22:37:33.190Z,19.33
2018-02-04T22:40:00.674Z,18.87
2018-02-04T22:42:28.147Z,18.60
2018-02-04T22:44:55.613Z,18.30
2018-02-04T22:47:23.092Z,17.87
2018-02-04T22:49:50.561Z,17.27
2018-02-04T22:52:18.031Z,19.43
2018-02-04T22:54:45.528Z,20.63
2018-02-04T22:57:12.993Z,20.87
2018-02-04T22:59:41.239Z,21.70
2018-02-04T23:02:08.711Z,23.50
2018-02-04T23:04:36.173Z,22.57
2018-02-04T23:07:03.637Z,23.30
2018-02-04T23:09:31.870Z,23.23
2018-02-04T23:11:59.337Z,25.93
2018-02-04T23:14:26.806Z,23.70
2018-02-04T23:16:55.047Z,23.97
2018-02-04T23:19:22.539Z,22.97
2018-02-04T23:21:49.990Z,22.33
2018-02-04T23:24:17.451Z,23.23
2018-02-04T23:26:44.913Z,22.93
2018-02-04T23:29:12.369Z,22.60
2018-02-04T23:31:39.833Z,23.20
2018-02-04T23:34:08.069Z,22.10
2018-02-04T23:36:35.531Z,24.23
2018-02-04T23:39:03.375Z,23.87
2018-02-04T23:41:30.858Z,24.80
2018-02-04T23:43:58.317Z,23.70
2018-02-04T23:46:25.794Z,22.67
2018-02-04T23:48:53.254Z,24.50
2018-02-04T23:51:20.753Z,23.40
2018-02-04T23:53:48.217Z,25.23
2018-02-04T23:56:15.724Z,23.93
2018-02-04T23:58:43.161Z,26.33
